Time;durP1;ratioP1;P1;durP2;ratioP2;P2;SDS_P1;SDS_P2;PMS_P1;PMS_P2;Temp;Humidity;BMP_temperature;BMP_pressure;BME280_temperature;BME280_humidity;BME280_pressure;Samples;Min_cycle;Max_cycle;Signal;HPM_P1;HPM_P2
2023/07/31 04:55:52;;;;;;;;;;;;;;;25.09;68.05;100482.22;6325027;22;19911;-80
2023/07/31 04:58:41;;;;;;;;;;;;;;;25.34;67.59;100484.63;6327102;22;19907;-81
2023/07/31 05:01:33;;;;;;;;;;;;;;;25.10;68.27;100472.66;6327601;22;19911;-81
2023/07/31 05:04:23;;;;;;;;;;;;;;;24.93;69.41;100474.50;6327437;22;19907;-81
2023/07/31 05:07:12;;;;;;;;;;;;;;;25.07;69.09;100485.41;6327185;22;19911;-81
2023/07/31 05:10:04;;;;;;;;;;;;;;;25.45;67.29;100488.81;6326940;22;19910;-80
2023/07/31 05:12:56;;;;;;;;;;;;;;;25.41;67.45;100488.06;6326437;22;19906;-80
2023/07/31 05:15:46;;;;;;;;;;;;;;;25.54;67.08;100491.88;6327130;22;19910;-80
2023/07/31 05:18:38;;;;;;;;;;;;;;;25.73;66.31;100495.16;6327140;22;19907;-80
2023/07/31 05:21:30;;;;;;;;;;;;;;;25.80;66.36;100500.63;6327073;22;19911;-80
2023/07/31 05:24:22;;;;;;;;;;;;;;;25.92;65.39;100502.78;6326861;22;20269;-79
2023/07/31 05:27:12;;;;;;;;;;;;;;;26.05;64.68;100502.97;6326604;22;20245;-79
2023/07/31 05:30:04;;;;;;;;;;;;;;;26.11;64.39;100510.41;6324996;22;19911;-80
2023/07/31 05:32:56;;;;;;;;;;;;;;;25.98;64.99;100506.66;6326345;22;20345;-81
2023/07/31 05:35:48;;;;;;;;;;;;;;;25.79;66.24;100510.19;6326722;22;19911;-81
2023/07/31 05:38:40;;;;;;;;;;;;;;;25.82;65.84;100512.13;6323439;22;19911;-81
2023/07/31 05:41:32;;;;;;;;;;;;;;;25.82;66.01;100506.53;6325658;22;19926;-80
2023/07/31 05:44:24;;;;;;;;;;;;;;;25.77;66.11;100507.03;6326172;22;20248;-80
2023/07/31 05:47:16;;;;;;;;;;;;;;;25.86;65.89;100510.84;6325052;22;20269;-80
2023/07/31 05:50:08;;;;;;;;;;;;;;;25.92;65.37;100513.94;6326594;22;19906;-81
2023/07/31 05:53:01;;;;;;;;;;;;;;;25.75;66.52;100513.00;6325787;22;19907;-78
2023/07/31 05:55:50;;;;;;;;;;;;;;;25.58;67.21;100516.09;6325537;22;19907;-79
2023/07/31 05:58:40;;;;;;;;;;;;;;;25.52;67.26;100516.56;6326173;22;19907;-79
2023/07/31 06:01:31;;;;;;;;;;;;;;;25.49;67.59;100514.63;6325652;22;20400;-79
2023/07/31 06:04:23;;;;;;;;;;;;;;;25.48;67.69;100518.59;6324805;22;19907;-79
2023/07/31 06:07:13;;;;;;;;;;;;;;;25.49;67.94;100528.53;6325355;22;19907;-79
2023/07/31 06:10:05;;;;;;;;;;;;;;;25.50;67.90;100530.09;6327971;22;19911;-78
2023/07/31 06:12:57;;;;;;;;;;;;;;;25.53;68.11;100532.06;6325789;22;19907;-78
2023/07/31 06:15:47;;;;;;;;;;;;;;;25.52;68.23;100524.13;6324620;22;19906;-79
2023/07/31 06:18:38;;;;;;;;;;;;;;;25.54;67.99;100528.06;6324237;22;20281;-79
2023/07/31 06:21:30;;;;;;;;;;;;;;;25.57;68.11;100537.59;6324480;22;19915;-79
2023/07/31 06:24:22;;;;;;;;;;;;;;;25.59;68.11;100539.97;6324422;22;19907;-79
2023/07/31 06:27:12;;;;;;;;;;;;;;;25.60;68.00;100533.94;6323086;22;19910;-78
2023/07/31 06:30:01;;;;;;;;;;;;;;;25.62;67.79;100539.09;6321882;22;19907;-78
2023/07/31 06:32:53;;;;;;;;;;;;;;;25.64;67.70;100540.28;6322391;22;20245;-79
2023/07/31 06:35:45;;;;;;;;;;;;;;;25.70;67.52;100543.38;6322142;22;19914;-78
2023/07/31 06:38:34;;;;;;;;;;;;;;;25.73;67.43;100548.09;6323398;22;19910;-78
2023/07/31 06:41:27;;;;;;;;;;;;;;;25.75;67.12;100540.09;6321324;22;19907;-79
2023/07/31 06:44:19;;;;;;;;;;;;;;;25.79;66.92;100543.63;6321851;22;20241;-79
2023/07/31 06:47:11;;;;;;;;;;;;;;;25.80;66.10;100545.19;6322843;22;19907;-79
2023/07/31 06:50:00;;;;;;;;;;;;;;;25.83;65.77;100547.91;6327692;22;20237;-80
2023/07/31 06:52:50;;;;;;;;;;;;;;;25.87;65.34;100550.63;6328177;22;19911;-80
2023/07/31 06:55:42;;;;;;;;;;;;;;;25.89;65.06;100542.66;6331345;22;19906;-80
2023/07/31 06:58:34;;;;;;;;;;;;;;;25.93;65.01;100548.94;6333095;22;19907;-80
2023/07/31 07:01:23;;;;;;;;;;;;;;;25.92;65.24;100545.38;6332188;22;19906;-80
2023/07/31 07:04:15;;;;;;;;;;;;;;;25.96;65.36;100553.66;6331858;22;19914;-80
2023/07/31 07:07:07;;;;;;;;;;;;;;;26.02;65.24;100540.81;6331212;22;19907;-79
2023/07/31 07:09:59;;;;;;;;;;;;;;;26.03;62.95;100541.63;6333429;22;19906;-80
2023/07/31 07:12:51;;;;;;;;;;;;;;;26.07;62.99;100545.91;6333288;22;19907;-80
2023/07/31 07:15:41;;;;;;;;;;;;;;;26.11;64.06;100543.84;6330818;22;19910;-80
2023/07/31 07:18:30;;;;;;;;;;;;;;;26.16;64.14;100556.53;6328120;22;19907;-80
2023/07/31 07:21:19;;;;;;;;;;;;;;;26.20;63.98;100558.03;6328960;22;19911;-79
2023/07/31 07:24:11;;;;;;;;;;;;;;;26.22;64.64;100555.63;6319166;22;19919;-79
2023/07/31 07:27:00;;;;;;;;;;;;;;;26.25;64.38;100551.22;6329775;22;20265;-79
2023/07/31 07:29:52;;;;;;;;;;;;;;;26.26;64.62;100555.59;6333498;22;19936;-80
2023/07/31 07:32:44;;;;;;;;;;;;;;;26.27;63.81;100560.72;6335295;22;19911;-80
2023/07/31 07:35:37;;;;;;;;;;;;;;;26.30;63.85;100556.31;6334842;22;19907;-81
2023/07/31 07:38:29;;;;;;;;;;;;;;;26.31;63.07;100553.06;6332620;22;20345;-80
2023/07/31 07:41:18;;;;;;;;;;;;;;;26.41;63.06;100553.31;6333805;22;19910;-81
2023/07/31 07:44:10;;;;;;;;;;;;;;;26.46;63.37;100553.63;6336244;22;19907;-81
2023/07/31 07:47:00;;;;;;;;;;;;;;;26.50;62.60;100548.75;6334665;22;19907;-80
2023/07/31 07:49:52;;;;;;;;;;;;;;;26.54;62.21;100554.25;6336716;22;19907;-80
2023/07/31 07:52:42;;;;;;;;;;;;;;;26.61;61.96;100543.75;6334968;22;19906;-80
2023/07/31 07:55:34;;;;;;;;;;;;;;;26.69;61.86;100549.97;6334244;22;19907;-80
2023/07/31 07:58:23;;;;;;;;;;;;;;;26.74;60.84;100550.25;6332336;22;19911;-80
2023/07/31 08:01:13;;;;;;;;;;;;;;;26.71;60.37;100553.13;6332870;22;19910;-82
2023/07/31 08:04:05;;;;;;;;;;;;;;;26.70;61.11;100548.75;6335507;22;19910;-80
2023/07/31 08:06:57;;;;;;;;;;;;;;;26.74;60.90;100546.66;6330175;22;19906;-80
2023/07/31 08:09:46;;;;;;;;;;;;;;;26.74;61.90;100547.47;6328463;22;19906;-80
2023/07/31 08:12:36;;;;;;;;;;;;;;;26.81;61.11;100535.38;6327772;22;19907;-80
2023/07/31 08:15:25;;;;;;;;;;;;;;;26.85;59.79;100544.47;6328445;22;20241;-80
2023/07/31 08:18:17;;;;;;;;;;;;;;;26.93;59.88;100543.09;6331031;22;19907;-81
2023/07/31 08:21:07;;;;;;;;;;;;;;;26.93;60.78;100540.31;6330518;22;19911;-81
2023/07/31 08:23:59;;;;;;;;;;;;;;;26.89;61.34;100542.41;6330719;22;19914;-81
2023/07/31 08:26:51;;;;;;;;;;;;;;;26.87;61.77;100544.81;6329295;22;20241;-81
2023/07/31 08:29:43;;;;;;;;;;;;;;;27.08;59.20;100557.53;6329160;22;19911;-80
2023/07/31 08:32:35;;;;;;;;;;;;;;;27.14;59.84;100562.19;6328808;22;20330;-79
2023/07/31 08:35:28;;;;;;;;;;;;;;;27.26;57.01;100559.97;6329272;22;19907;-80
2023/07/31 08:38:20;;;;;;;;;;;;;;;27.21;59.29;100558.47;6328854;22;19907;-80
2023/07/31 08:41:13;;;;;;;;;;;;;;;27.12;59.14;100556.25;6328793;22;19910;-80
2023/07/31 08:44:03;;;;;;;;;;;;;;;27.19;59.48;100564.47;6329287;22;19914;-80
2023/07/31 08:46:54;;;;;;;;;;;;;;;27.32;59.32;100555.44;6327858;22;20260;-80
2023/07/31 08:49:48;;;;;;;;;;;;;;;27.59;57.54;100558.81;6328303;22;19906;-79
2023/07/31 08:52:38;;;;;;;;;;;;;;;27.47;58.35;100551.88;6329158;22;19907;-80
2023/07/31 08:55:30;;;;;;;;;;;;;;;27.36;58.16;100551.34;6328261;22;19906;-80
2023/07/31 08:58:25;;;;;;;;;;;;;;;27.52;57.52;100553.41;6327674;22;19907;-80
2023/07/31 09:01:18;;;;;;;;;;;;;;;27.72;56.32;100553.34;6328431;22;19910;-78
2023/07/31 09:04:11;;;;;;;;;;;;;;;27.90;54.83;100553.66;6327083;22;19907;-80
2023/07/31 09:07:04;;;;;;;;;;;;;;;28.03;53.46;100548.94;6326463;22;19907;-80
2023/07/31 09:09:56;;;;;;;;;;;;;;;28.11;53.13;100538.34;6327411;22;19907;-80
2023/07/31 09:12:48;;;;;;;;;;;;;;;28.38;50.95;100544.47;6328435;22;19910;-80
2023/07/31 09:15:36;;;;;;;;;;;;;;;28.39;50.71;100534.84;6328254;22;19907;-80
2023/07/31 09:18:25;;;;;;;;;;;;;;;28.46;51.08;100531.84;6327619;22;19910;-79
2023/07/31 09:21:17;;;;;;;;;;;;;;;28.39;49.96;100529.25;6327765;22;19911;-80
2023/07/31 09:24:07;;;;;;;;;;;;;;;28.31;52.59;100527.84;6327405;22;19907;-80
2023/07/31 09:26:59;;;;;;;;;;;;;;;28.33;51.38;100519.81;6326916;22;19907;-80
2023/07/31 09:29:58;;;;;;;;;;;;;;;28.61;48.85;100526.63;6328581;22;20246;-80
2023/07/31 09:32:50;;;;;;;;;;;;;;;28.49;50.28;100519.78;6326525;22;19907;-79
2023/07/31 09:35:40;;;;;;;;;;;;;;;28.18;52.04;100516.63;6323029;22;19907;-82
2023/07/31 09:38:32;;;;;;;;;;;;;;;28.03;52.76;100519.00;6323907;22;19907;-78
2023/07/31 09:41:21;;;;;;;;;;;;;;;28.04;50.33;100520.53;6324401;22;20273;-79
2023/07/31 09:44:10;;;;;;;;;;;;;;;28.43;48.43;100513.16;6321327;22;19906;-83
2023/07/31 09:47:00;;;;;;;;;;;;;;;28.67;47.91;100522.06;6327585;22;19907;-80
2023/07/31 09:49:49;;;;;;;;;;;;;;;28.61;48.03;100524.63;6327227;22;19906;-79
2023/07/31 09:52:41;;;;;;;;;;;;;;;28.64;49.24;100523.75;6324351;22;19907;-80
2023/07/31 09:55:31;;;;;;;;;;;;;;;28.93;47.93;100520.91;6326037;22;19906;-82
2023/07/31 09:58:19;;;;;;;;;;;;;;;28.90;48.26;100528.19;6327326;22;20242;-79
2023/07/31 10:01:06;;;;;;;;;;;;;;;28.94;47.95;100514.09;6325063;22;19910;-80
2023/07/31 10:04:00;;;;;;;;;;;;;;;29.01;47.73;100516.66;6326416;22;19906;-80
2023/07/31 10:06:52;;;;;;;;;;;;;;;29.32;47.75;100512.13;6323223;22;19907;-82
2023/07/31 10:09:42;;;;;;;;;;;;;;;29.20;47.50;100515.69;6324175;22;19907;-82
2023/07/31 10:12:34;;;;;;;;;;;;;;;29.52;45.51;100520.28;6326553;22;19906;-82
2023/07/31 10:15:28;;;;;;;;;;;;;;;29.51;46.13;100512.34;6327298;22;20508;-81
2023/07/31 10:18:20;;;;;;;;;;;;;;;29.40;47.03;100507.09;6327316;22;19907;-82
2023/07/31 10:21:10;;;;;;;;;;;;;;;29.27;47.19;100506.25;6325217;22;19911;-82
2023/07/31 10:23:59;;;;;;;;;;;;;;;29.15;48.00;100507.84;6327223;22;20313;-82
2023/07/31 10:26:54;;;;;;;;;;;;;;;29.72;46.00;100501.19;6327458;22;19907;-81
2023/07/31 10:29:48;;;;;;;;;;;;;;;29.82;46.25;100504.13;6330213;22;20245;-81
2023/07/31 10:32:40;;;;;;;;;;;;;;;29.59;46.86;100503.25;6329050;22;19907;-82
2023/07/31 10:35:32;;;;;;;;;;;;;;;29.46;47.36;100494.06;6328660;22;19907;-81
2023/07/31 10:38:26;;;;;;;;;;;;;;;29.63;47.85;100503.13;6330558;22;19906;-81
2023/07/31 10:41:18;;;;;;;;;;;;;;;29.79;46.67;100505.00;6330441;22;19910;-82
2023/07/31 10:44:07;;;;;;;;;;;;;;;29.61;45.70;100500.75;6329928;22;19906;-82
2023/07/31 10:46:59;;;;;;;;;;;;;;;29.73;45.21;100499.19;6326327;22;19906;-81
2023/07/31 10:49:51;;;;;;;;;;;;;;;29.86;45.17;100487.94;6329150;22;19936;-81
2023/07/31 10:52:39;;;;;;;;;;;;;;;30.05;44.72;100495.31;6329053;22;19910;-82
2023/07/31 10:55:36;;;;;;;;;;;;;;;30.03;44.87;100487.34;6330118;22;19907;-82
2023/07/31 10:58:28;;;;;;;;;;;;;;;30.16;43.53;100481.69;6325105;22;19910;-82
2023/07/31 11:01:15;;;;;;;;;;;;;;;30.06;44.45;100494.88;6325745;22;19911;-82
2023/07/31 11:04:12;;;;;;;;;;;;;;;29.87;45.27;100492.31;6326104;22;19907;-82
2023/07/31 11:07:04;;;;;;;;;;;;;;;29.29;46.65;100496.19;6327365;22;19907;-81
2023/07/31 11:09:56;;;;;;;;;;;;;;;29.12;47.70;100496.72;6324445;22;19911;-82
2023/07/31 11:12:47;;;;;;;;;;;;;;;29.39;46.91;100488.69;6325274;22;19907;-82
2023/07/31 11:15:39;;;;;;;;;;;;;;;30.11;45.51;100499.13;6327254;22;19907;-82
2023/07/31 11:18:29;;;;;;;;;;;;;;;30.04;44.83;100502.16;6325738;22;20265;-81
2023/07/31 11:21:22;;;;;;;;;;;;;;;30.28;44.60;100489.25;6324958;22;19911;-82
2023/07/31 11:24:15;;;;;;;;;;;;;;;30.50;44.07;100487.28;6328389;22;19906;-81
2023/07/31 11:27:10;;;;;;;;;;;;;;;30.30;44.42;100491.63;6327490;22;20497;-82
2023/07/31 11:30:05;;;;;;;;;;;;;;;30.13;45.06;100485.41;6326660;22;19926;-82
2023/07/31 11:32:59;;;;;;;;;;;;;;;30.20;43.81;100478.75;6328288;22;19907;-82
2023/07/31 11:35:50;;;;;;;;;;;;;;;30.27;44.87;100482.09;6327087;22;19907;-82
2023/07/31 11:38:42;;;;;;;;;;;;;;;30.43;44.54;100479.09;6328791;22;19907;-81
2023/07/31 11:41:29;;;;;;;;;;;;;;;30.08;45.46;100467.13;6327716;22;19911;-81
2023/07/31 11:44:19;;;;;;;;;;;;;;;30.25;45.00;100464.94;6327731;22;19907;-81
2023/07/31 11:47:11;;;;;;;;;;;;;;;30.35;45.13;100468.59;6324982;22;19911;-80
2023/07/31 11:50:01;;;;;;;;;;;;;;;30.42;45.06;100460.69;6325023;22;19907;-81
2023/07/31 11:52:54;;;;;;;;;;;;;;;30.48;43.70;100463.69;6325299;22;19907;-80
2023/07/31 11:55:47;;;;;;;;;;;;;;;30.25;44.50;100458.53;6324181;22;19911;-81
2023/07/31 11:58:38;;;;;;;;;;;;;;;30.16;45.24;100456.44;6324944;22;19907;-81
2023/07/31 12:01:28;;;;;;;;;;;;;;;29.68;46.80;100464.09;6323702;22;19915;-81
2023/07/31 12:04:20;;;;;;;;;;;;;;;29.82;46.06;100456.44;6323796;22;19911;-81
2023/07/31 12:07:12;;;;;;;;;;;;;;;29.65;46.74;100456.59;6323008;22;19906;-81
2023/07/31 12:10:04;;;;;;;;;;;;;;;29.29;48.10;100444.97;6324590;22;19906;-81
2023/07/31 12:13:08;;;;;;;;;;;;;;;29.11;48.61;100434.31;6325292;22;19911;-81
2023/07/31 12:16:01;;;;;;;;;;;;;;;29.68;47.39;100433.25;6324896;22;19907;-80
2023/07/31 12:18:53;;;;;;;;;;;;;;;30.00;45.67;100426.56;6326761;22;19907;-80
2023/07/31 12:21:45;;;;;;;;;;;;;;;30.17;46.50;100433.53;6326040;22;19910;-80
2023/07/31 12:24:37;;;;;;;;;;;;;;;30.31;44.69;100423.81;6325996;22;19906;-83
2023/07/31 12:27:35;;;;;;;;;;;;;;;30.42;44.37;100417.81;6324709;22;19910;-80
2023/07/31 12:30:34;;;;;;;;;;;;;;;30.52;44.23;100406.22;6327813;22;19907;-81
2023/07/31 12:33:23;;;;;;;;;;;;;;;30.38;44.39;100395.47;6329625;22;19906;-78
2023/07/31 12:36:17;;;;;;;;;;;;;;;30.23;44.63;100404.88;6325311;22;20457;-80
2023/07/31 12:39:09;;;;;;;;;;;;;;;30.10;45.05;100402.16;6326785;22;19907;-80
2023/07/31 12:42:01;;;;;;;;;;;;;;;29.96;44.92;100392.25;6324445;22;20330;-80
2023/07/31 12:44:52;;;;;;;;;;;;;;;30.19;43.24;100391.00;6300034;22;20338;-79
2023/07/31 12:47:45;;;;;;;;;;;;;;;30.32;42.45;100390.94;6324996;22;19910;-80
2023/07/31 12:50:36;;;;;;;;;;;;;;;30.54;42.47;100386.09;6330927;22;20245;-80
2023/07/31 12:53:26;;;;;;;;;;;;;;;30.38;42.00;100383.47;6328443;22;19906;-79
2023/07/31 12:56:18;;;;;;;;;;;;;;;30.38;43.53;100378.66;6323944;22;19910;-80
2023/07/31 12:59:10;;;;;;;;;;;;;;;30.11;43.76;100364.47;6328765;22;19906;-80
2023/07/31 13:02:02;;;;;;;;;;;;;;;30.16;42.63;100370.28;6327689;22;19914;-80
2023/07/31 13:04:54;;;;;;;;;;;;;;;30.03;43.78;100366.75;6326615;22;19907;-79
2023/07/31 13:07:41;;;;;;;;;;;;;;;29.81;45.51;100362.34;6325866;22;19914;-81
2023/07/31 13:10:30;;;;;;;;;;;;;;;29.68;45.06;100353.97;6329228;22;19907;-80
2023/07/31 13:13:22;;;;;;;;;;;;;;;29.75;45.01;100350.94;6328949;22;19907;-80
2023/07/31 13:16:14;;;;;;;;;;;;;;;30.22;43.43;100344.44;6330110;22;19907;-80
2023/07/31 13:19:05;;;;;;;;;;;;;;;30.43;43.84;100357.63;6327248;22;19910;-80
2023/07/31 13:21:55;;;;;;;;;;;;;;;30.66;42.72;100353.56;6323878;22;19911;-80
2023/07/31 13:24:49;;;;;;;;;;;;;;;30.13;44.49;100342.34;6324527;22;19907;-79
2023/07/31 13:27:41;;;;;;;;;;;;;;;29.82;45.64;100341.50;6327378;22;20253;-80
2023/07/31 13:30:30;;;;;;;;;;;;;;;29.67;42.48;100329.97;6328643;22;19910;-80
2023/07/31 13:33:20;;;;;;;;;;;;;;;29.62;45.54;100325.75;6328088;22;19907;-81
2023/07/31 13:36:09;;;;;;;;;;;;;;;29.42;46.98;100324.47;6327207;22;19907;-79
2023/07/31 13:39:01;;;;;;;;;;;;;;;29.55;45.42;100322.44;6327451;22;20341;-80
2023/07/31 13:41:51;;;;;;;;;;;;;;;29.51;45.50;100322.53;6328312;22;19910;-80
2023/07/31 13:44:41;;;;;;;;;;;;;;;29.75;45.64;100320.09;6327979;22;20473;-80
2023/07/31 13:47:33;;;;;;;;;;;;;;;29.47;46.56;100315.50;6328287;22;20329;-80
2023/07/31 13:50:24;;;;;;;;;;;;;;;29.79;45.69;100320.75;6328043;22;19906;-80
2023/07/31 13:53:16;;;;;;;;;;;;;;;29.94;43.77;100315.41;6326846;22;19911;-80
2023/07/31 13:56:08;;;;;;;;;;;;;;;30.21;43.25;100317.63;6327720;22;19907;-80
2023/07/31 13:59:00;;;;;;;;;;;;;;;30.18;42.96;100316.50;6327692;22;19907;-81
2023/07/31 14:01:48;;;;;;;;;;;;;;;30.44;41.98;100314.28;6326453;22;19911;-81
2023/07/31 14:04:37;;;;;;;;;;;;;;;30.42;42.50;100311.19;6326299;22;19906;-80
2023/07/31 14:07:30;;;;;;;;;;;;;;;30.38;43.17;100305.69;6325164;22;20249;-81
2023/07/31 14:10:19;;;;;;;;;;;;;;;30.48;41.95;100310.13;6326394;22;19910;-79
2023/07/31 14:13:06;;;;;;;;;;;;;;;30.31;42.09;100308.78;6327409;22;19907;-79
2023/07/31 14:15:58;;;;;;;;;;;;;;;30.40;42.67;100306.00;6327552;22;19907;-79
2023/07/31 14:18:50;;;;;;;;;;;;;;;30.06;43.97;100306.94;6328176;22;19907;-79
2023/07/31 14:21:42;;;;;;;;;;;;;;;29.88;43.78;100303.19;6328094;22;20253;-79
2023/07/31 14:24:34;;;;;;;;;;;;;;;30.07;43.01;100302.88;6328285;22;19906;-79
2023/07/31 14:27:26;;;;;;;;;;;;;;;30.41;43.65;100301.19;6328425;22;19910;-78
2023/07/31 14:30:18;;;;;;;;;;;;;;;30.29;43.11;100302.84;6326638;22;19910;-80
2023/07/31 14:33:07;;;;;;;;;;;;;;;30.47;41.89;100290.97;6326793;22;19911;-78
2023/07/31 14:35:59;;;;;;;;;;;;;;;30.41;43.75;100295.56;6325047;22;19907;-79
2023/07/31 14:38:51;;;;;;;;;;;;;;;30.30;43.78;100298.00;6324008;22;19907;-78
2023/07/31 14:41:43;;;;;;;;;;;;;;;30.51;43.39;100297.19;6327220;22;19914;-79
2023/07/31 14:44:35;;;;;;;;;;;;;;;30.56;43.94;100288.19;6326766;22;19907;-79
2023/07/31 14:47:24;;;;;;;;;;;;;;;30.40;44.14;100289.19;6328633;22;19906;-79
2023/07/31 14:50:16;;;;;;;;;;;;;;;30.37;43.80;100287.31;6325367;22;19910;-80
2023/07/31 14:53:06;;;;;;;;;;;;;;;30.07;44.59;100296.50;6328598;22;19907;-80
2023/07/31 14:55:58;;;;;;;;;;;;;;;30.10;44.36;100285.16;6325196;22;19907;-80
2023/07/31 14:58:47;;;;;;;;;;;;;;;30.01;44.85;100287.91;6326146;22;19907;-80
2023/07/31 15:01:39;;;;;;;;;;;;;;;30.18;44.60;100294.06;6328133;22;20333;-80
2023/07/31 15:04:26;;;;;;;;;;;;;;;30.05;44.90;100287.75;6326237;22;19926;-80
2023/07/31 15:07:16;;;;;;;;;;;;;;;29.99;45.36;100281.19;6327000;22;19907;-80
2023/07/31 15:10:08;;;;;;;;;;;;;;;29.77;45.73;100281.16;6328466;22;19907;-80
2023/07/31 15:12:57;;;;;;;;;;;;;;;29.89;45.34;100274.72;6329119;22;19906;-79
2023/07/31 15:15:49;;;;;;;;;;;;;;;30.14;44.40;100270.97;6328500;22;19907;-80
2023/07/31 15:18:41;;;;;;;;;;;;;;;30.18;43.63;100277.22;6329633;22;19907;-80
2023/07/31 15:21:30;;;;;;;;;;;;;;;30.09;44.87;100271.56;6330612;22;19938;-80
2023/07/31 15:24:20;;;;;;;;;;;;;;;29.94;44.99;100260.13;6331196;22;19906;-80
2023/07/31 15:27:10;;;;;;;;;;;;;;;30.05;45.40;100265.31;6330156;22;19906;-80
2023/07/31 15:30:02;;;;;;;;;;;;;;;29.99;45.65;100258.75;6329107;22;19906;-80
2023/07/31 15:32:55;;;;;;;;;;;;;;;29.95;45.05;100258.09;6330107;22;19907;-79
2023/07/31 15:35:47;;;;;;;;;;;;;;;29.82;46.63;100257.38;6330641;22;19907;-80
2023/07/31 15:38:37;;;;;;;;;;;;;;;29.74;46.39;100251.25;6326291;22;19940;-80
2023/07/31 15:41:29;;;;;;;;;;;;;;;29.79;45.85;100245.06;6326776;22;20256;-79
2023/07/31 15:44:21;;;;;;;;;;;;;;;29.67;45.81;100241.06;6329156;22;19907;-80
2023/07/31 15:47:13;;;;;;;;;;;;;;;29.73;45.86;100244.06;6329561;22;20241;-79
2023/07/31 15:50:02;;;;;;;;;;;;;;;29.85;45.12;100240.41;6330299;22;19907;-80
2023/07/31 15:52:52;;;;;;;;;;;;;;;29.82;44.87;100232.16;6330894;22;19911;-82
2023/07/31 15:55:44;;;;;;;;;;;;;;;29.69;47.12;100230.19;6328876;22;20423;-80
2023/07/31 15:58:36;;;;;;;;;;;;;;;29.57;46.46;100228.25;6326739;22;19914;-80
2023/07/31 16:01:26;;;;;;;;;;;;;;;29.65;45.26;100226.75;6325475;22;20497;-79
2023/07/31 16:04:19;;;;;;;;;;;;;;;29.64;45.44;100230.78;6327161;22;19906;-80
2023/07/31 16:07:08;;;;;;;;;;;;;;;29.76;46.44;100232.72;6328018;22;19914;-80
2023/07/31 16:09:58;;;;;;;;;;;;;;;29.70;46.48;100228.97;6325320;22;19907;-80
2023/07/31 16:12:47;;;;;;;;;;;;;;;29.80;45.04;100226.22;6329891;22;19907;-79
2023/07/31 16:15:36;;;;;;;;;;;;;;;29.79;45.74;100225.41;6331315;22;20334;-80
2023/07/31 16:18:28;;;;;;;;;;;;;;;29.81;46.43;100224.97;6329710;22;19915;-80
2023/07/31 16:21:20;;;;;;;;;;;;;;;29.80;46.63;100220.59;6329088;22;19911;-81
2023/07/31 16:24:12;;;;;;;;;;;;;;;29.75;46.66;100227.59;6328377;22;19907;-82
2023/07/31 16:27:04;;;;;;;;;;;;;;;29.72;46.05;100220.84;6327642;22;20330;-80
2023/07/31 16:29:57;;;;;;;;;;;;;;;29.73;46.46;100216.03;6329072;22;19929;-80
2023/07/31 16:32:49;;;;;;;;;;;;;;;29.70;46.38;100216.97;6328369;22;19907;-81
2023/07/31 16:35:41;;;;;;;;;;;;;;;29.75;45.82;100222.75;6327327;22;19907;-80
2023/07/31 16:38:33;;;;;;;;;;;;;;;29.75;45.47;100217.16;6327281;22;20318;-81
2023/07/31 16:41:23;;;;;;;;;;;;;;;29.74;45.57;100212.78;6326472;22;19962;-81
2023/07/31 16:44:15;;;;;;;;;;;;;;;29.67;46.04;100217.88;6327237;22;19906;-81
2023/07/31 16:47:07;;;;;;;;;;;;;;;29.72;45.90;100222.88;6328254;22;19915;-81
2023/07/31 16:49:59;;;;;;;;;;;;;;;29.72;45.46;100220.84;6328881;22;20334;-81
2023/07/31 16:52:51;;;;;;;;;;;;;;;29.72;45.47;100220.06;6328883;22;19907;-81
2023/07/31 16:55:43;;;;;;;;;;;;;;;29.67;46.34;100217.88;6327983;22;20318;-80
2023/07/31 16:58:36;;;;;;;;;;;;;;;29.74;45.90;100217.59;6328478;22;19906;-81
2023/07/31 17:01:30;;;;;;;;;;;;;;;29.64;46.39;100213.97;6327377;22;19911;-80
2023/07/31 17:04:22;;;;;;;;;;;;;;;29.64;45.89;100219.56;6328363;22;19906;-80
2023/07/31 17:07:14;;;;;;;;;;;;;;;29.66;46.39;100219.13;6328197;22;20246;-80
2023/07/31 17:10:03;;;;;;;;;;;;;;;29.74;46.79;100218.38;6331532;22;19907;-79
2023/07/31 17:12:50;;;;;;;;;;;;;;;29.65;47.84;100207.13;6334340;22;19907;-79
2023/07/31 17:15:42;;;;;;;;;;;;;;;29.68;48.44;100214.63;6333960;22;19906;-79
2023/07/31 17:18:35;;;;;;;;;;;;;;;29.58;48.84;100204.59;6334105;22;19910;-78
2023/07/31 17:21:22;;;;;;;;;;;;;;;29.62;48.19;100204.44;6334132;22;19910;-78
2023/07/31 17:24:11;;;;;;;;;;;;;;;29.65;47.64;100204.34;6333245;22;19932;-78
2023/07/31 17:27:03;;;;;;;;;;;;;;;29.61;48.23;100214.88;6333641;22;19906;-78
2023/07/31 17:29:58;;;;;;;;;;;;;;;29.52;48.48;100216.84;6332665;22;19907;-78
2023/07/31 17:32:50;;;;;;;;;;;;;;;29.58;47.68;100221.41;6332797;22;19907;-78
2023/07/31 17:35:42;;;;;;;;;;;;;;;29.56;48.16;100223.13;6333239;22;19906;-78
2023/07/31 17:38:34;;;;;;;;;;;;;;;29.48;48.72;100216.97;6332322;22;19906;-78
2023/07/31 17:41:23;;;;;;;;;;;;;;;29.48;48.30;100222.59;6333239;22;19911;-78
2023/07/31 17:44:13;;;;;;;;;;;;;;;29.40;48.50;100224.09;6332961;22;19907;-79
2023/07/31 17:47:02;;;;;;;;;;;;;;;29.40;48.65;100232.50;6333186;22;19907;-78
2023/07/31 17:49:54;;;;;;;;;;;;;;;29.38;48.97;100222.97;6332921;22;19907;-78
2023/07/31 17:52:44;;;;;;;;;;;;;;;29.36;48.43;100222.66;6332331;22;19910;-79
2023/07/31 17:55:34;;;;;;;;;;;;;;;29.32;48.65;100220.75;6332056;22;19910;-84
2023/07/31 17:58:26;;;;;;;;;;;;;;;29.37;48.76;100227.78;6333077;22;19910;-84
2023/07/31 18:01:18;;;;;;;;;;;;;;;29.39;48.56;100221.75;6333789;22;19911;-84
2023/07/31 18:04:10;;;;;;;;;;;;;;;29.42;48.52;100229.22;6332911;22;19906;-83
2023/07/31 18:07:03;;;;;;;;;;;;;;;29.43;48.47;100231.56;6328961;22;19910;-84
2023/07/31 18:09:50;;;;;;;;;;;;;;;29.44;48.65;100235.94;6328276;22;19907;-87
2023/07/31 18:12:42;;;;;;;;;;;;;;;29.45;48.65;100245.13;6326607;22;19907;-84
2023/07/31 18:15:34;;;;;;;;;;;;;;;29.46;48.70;100238.31;6326317;22;19936;-84
2023/07/31 18:18:20;;;;;;;;;;;;;;;29.44;48.99;100235.94;6327425;22;19906;-84
2023/07/31 18:21:12;;;;;;;;;;;;;;;29.45;48.75;100242.34;6327053;22;20334;-84
2023/07/31 18:24:04;;;;;;;;;;;;;;;29.43;48.58;100239.97;6325828;22;19907;-85
2023/07/31 18:26:56;;;;;;;;;;;;;;;29.43;48.73;100239.97;6326353;22;19907;-85
2023/07/31 18:29:48;;;;;;;;;;;;;;;29.39;48.79;100242.13;6326937;22;19906;-84
2023/07/31 18:32:40;;;;;;;;;;;;;;;29.36;49.79;100250.69;6327009;22;19907;-84
2023/07/31 18:35:30;;;;;;;;;;;;;;;29.38;49.39;100253.78;6326420;22;19906;-84
2023/07/31 18:38:20;;;;;;;;;;;;;;;29.37;49.74;100261.41;6325858;22;19907;-85
2023/07/31 18:41:12;;;;;;;;;;;;;;;29.36;49.42;100261.88;6326075;22;19910;-85
2023/07/31 18:43:59;;;;;;;;;;;;;;;29.36;49.13;100261.88;6326756;22;20326;-85
2023/07/31 18:46:51;;;;;;;;;;;;;;;29.34;49.56;100267.94;6325243;22;19907;-85
2023/07/31 18:49:43;;;;;;;;;;;;;;;29.31;49.88;100264.00;6327579;22;20318;-85
2023/07/31 18:52:33;;;;;;;;;;;;;;;29.30;49.60;100275.66;6329793;22;19907;-85
2023/07/31 18:55:24;;;;;;;;;;;;;;;29.29;49.45;100276.88;6329839;22;19907;-84
2023/07/31 18:58:14;;;;;;;;;;;;;;;29.28;49.49;100264.91;6328511;22;20450;-85
2023/07/31 19:01:06;;;;;;;;;;;;;;;29.26;49.83;100260.97;6328570;22;19911;-85
2023/07/31 19:03:58;;;;;;;;;;;;;;;29.21;50.06;100269.94;6327691;22;19906;-86
2023/07/31 19:06:47;;;;;;;;;;;;;;;29.17;50.16;100272.09;6328983;22;19907;-85
2023/07/31 19:09:39;;;;;;;;;;;;;;;29.15;50.71;100266.19;6328515;22;19906;-85
2023/07/31 19:12:31;;;;;;;;;;;;;;;29.13;50.31;100275.03;6328699;22;20318;-85
2023/07/31 19:15:18;;;;;;;;;;;;;;;29.11;50.46;100268.31;6328591;22;19907;-84
2023/07/31 19:18:08;;;;;;;;;;;;;;;29.13;50.31;100274.25;6329084;22;19910;-85
2023/07/31 19:21:00;;;;;;;;;;;;;;;29.14;49.60;100270.22;6328735;22;20245;-84
2023/07/31 19:23:49;;;;;;;;;;;;;;;29.13;49.46;100269.44;6328655;22;19907;-85
2023/07/31 19:26:41;;;;;;;;;;;;;;;29.09;49.50;100273.59;6328909;22;19907;-83
2023/07/31 19:29:30;;;;;;;;;;;;;;;29.06;49.63;100274.47;6328688;22;19910;-84
2023/07/31 19:32:20;;;;;;;;;;;;;;;29.04;50.15;100276.97;6332603;22;19907;-83